createdAt,value
2018-08-06T00:02:13.311Z,20.70
2018-08-06T00:04:41.511Z,20.60
2018-08-06T00:07:09.683Z,20.60
2018-08-06T00:09:37.912Z,20.60
2018-08-06T00:12:06.286Z,20.60
2018-08-06T00:14:34.486Z,20.60
2018-08-06T00:17:02.706Z,20.60
2018-08-06T00:19:30.884Z,20.50
2018-08-06T00:21:59.071Z,20.50
2018-08-06T00:24:27.269Z,20.50
2018-08-06T00:26:55.482Z,20.50
2018-08-06T00:29:23.668Z,20.50
2018-08-06T00:31:51.847Z,20.40
2018-08-06T00:34:20.036Z,20.40
2018-08-06T00:36:48.251Z,20.40
2018-08-06T00:39:16.460Z,20.40
2018-08-06T00:41:44.670Z,20.40
2018-08-06T00:44:12.924Z,20.30
2018-08-06T00:46:41.123Z,20.30
2018-08-06T00:49:09.336Z,20.30
2018-08-06T00:51:37.524Z,20.30
2018-08-06T00:54:05.952Z,20.20
2018-08-06T00:56:34.196Z,20.20
2018-08-06T00:59:02.370Z,20.20
2018-08-06T01:01:30.537Z,20.20
2018-08-06T01:03:58.708Z,20.20
2018-08-06T01:06:26.880Z,20.20
2018-08-06T01:08:55.091Z,20.10
2018-08-06T01:11:23.253Z,20.10
2018-08-06T01:13:51.522Z,20.10
2018-08-06T01:16:19.726Z,20.10
2018-08-06T01:18:47.920Z,20.10
2018-08-06T01:21:16.083Z,20.00
2018-08-06T01:23:44.278Z,20.00
2018-08-06T01:26:12.492Z,20.00
2018-08-06T01:28:40.705Z,20.00
2018-08-06T01:31:08.895Z,20.00
2018-08-06T01:33:37.331Z,19.90
2018-08-06T01:36:05.551Z,19.90
2018-08-06T01:41:01.676Z,19.90
2018-08-06T01:43:29.843Z,19.80
2018-08-06T01:45:58.016Z,19.80
2018-08-06T01:48:26.255Z,19.80
2018-08-06T01:50:54.425Z,19.80
2018-08-06T01:53:22.584Z,19.70
2018-08-06T01:55:50.784Z,19.70
2018-08-06T01:58:18.952Z,19.70
2018-08-06T02:00:47.145Z,19.70
2018-08-06T02:03:15.383Z,19.70
2018-08-06T02:05:43.566Z,19.60
2018-08-06T02:08:11.743Z,19.60
2018-08-06T02:10:39.918Z,19.50
2018-08-06T02:13:08.116Z,19.50
2018-08-06T02:15:36.321Z,19.50
2018-08-06T02:18:04.572Z,19.40
2018-08-06T02:20:32.785Z,19.40
2018-08-06T02:23:01.001Z,19.40
2018-08-06T02:25:29.181Z,19.40
2018-08-06T02:27:57.354Z,19.30
2018-08-06T02:30:25.545Z,19.30
2018-08-06T02:32:53.776Z,19.30
2018-08-06T02:35:21.980Z,19.30
2018-08-06T02:37:50.208Z,19.20
2018-08-06T02:40:19.900Z,19.20
2018-08-06T02:42:48.283Z,19.20
2018-08-06T02:45:16.623Z,19.20
2018-08-06T02:47:44.866Z,19.20
2018-08-06T02:50:13.312Z,19.10
2018-08-06T02:55:12.233Z,19.00
2018-08-06T02:57:40.488Z,19.00
2018-08-06T03:00:10.703Z,19.00
2018-08-06T03:02:38.828Z,19.00
2018-08-06T03:05:09.122Z,18.90
2018-08-06T03:07:37.323Z,18.90
2018-08-06T03:10:05.583Z,18.90
2018-08-06T03:12:34.075Z,18.90
2018-08-06T03:15:02.273Z,18.80
2018-08-06T03:17:30.447Z,18.80
2018-08-06T03:19:58.640Z,18.80
2018-08-06T03:22:26.837Z,18.80
2018-08-06T03:24:55.055Z,18.70
2018-08-06T03:27:23.236Z,18.70
2018-08-06T03:29:51.436Z,18.70
2018-08-06T03:32:19.658Z,18.60
2018-08-06T03:34:47.803Z,18.60
2018-08-06T03:37:16.013Z,18.60
2018-08-06T03:39:44.212Z,18.60
2018-08-06T03:42:12.409Z,18.50
2018-08-06T03:44:40.612Z,18.50
2018-08-06T03:47:08.791Z,18.50
2018-08-06T03:49:37.020Z,18.40
2018-08-06T03:52:05.279Z,18.40
2018-08-06T03:54:33.481Z,18.40
2018-08-06T03:57:01.698Z,18.40
2018-08-06T03:59:29.880Z,18.30
2018-08-06T04:01:58.052Z,18.30
2018-08-06T04:04:26.253Z,18.30
2018-08-06T04:06:54.444Z,18.30
2018-08-06T04:09:22.628Z,18.20
2018-08-06T04:11:50.793Z,18.20
2018-08-06T04:14:18.991Z,18.20
2018-08-06T04:19:15.195Z,18.10
2018-08-06T04:21:43.363Z,18.10
2018-08-06T04:24:11.539Z,18.10
2018-08-06T04:26:39.956Z,18.10
2018-08-06T04:29:08.296Z,18.10
2018-08-06T04:31:39.882Z,18.00
2018-08-06T04:34:08.085Z,18.00
2018-08-06T04:36:36.983Z,18.00
2018-08-06T04:39:06.771Z,18.00
2018-08-06T04:41:35.021Z,18.00
2018-08-06T04:44:03.214Z,18.00
2018-08-06T04:46:31.398Z,17.90
2018-08-06T04:48:59.592Z,17.90
2018-08-06T04:51:27.751Z,17.90
2018-08-06T04:53:55.927Z,17.90
2018-08-06T04:56:24.114Z,17.90
2018-08-06T04:58:52.787Z,17.90
2018-08-06T05:01:20.965Z,17.90
2018-08-06T05:03:49.191Z,17.90
2018-08-06T05:06:17.422Z,17.80
2018-08-06T05:08:45.675Z,17.80
2018-08-06T05:11:13.912Z,17.80
2018-08-06T05:13:42.751Z,17.80
2018-08-06T05:16:10.910Z,17.80
2018-08-06T05:18:40.004Z,17.80
2018-08-06T05:21:08.204Z,17.80
2018-08-06T05:23:46.128Z,17.80
2018-08-06T05:26:14.356Z,17.80
2018-08-06T05:28:42.532Z,17.80
2018-08-06T05:31:10.720Z,17.80
2018-08-06T05:33:38.895Z,17.80
2018-08-06T05:36:07.111Z,17.80
2018-08-06T05:38:35.303Z,17.80
2018-08-06T05:41:03.508Z,17.80
2018-08-06T05:43:31.749Z,17.80
2018-08-06T05:48:27.909Z,17.80
2018-08-06T05:50:56.094Z,17.80
2018-08-06T05:53:24.298Z,17.90
2018-08-06T05:55:52.509Z,17.90
2018-08-06T05:58:20.701Z,17.90
2018-08-06T06:00:48.909Z,17.90
2018-08-06T06:03:17.167Z,17.90
2018-08-06T06:05:45.303Z,17.90
2018-08-06T06:08:13.531Z,18.00
2018-08-06T06:10:41.713Z,18.00
2018-08-06T06:13:09.905Z,18.20
2018-08-06T06:15:38.117Z,18.40
2018-08-06T06:20:34.261Z,18.80
2018-08-06T06:23:02.428Z,19.00
2018-08-06T06:27:58.557Z,19.40
2018-08-06T06:30:26.742Z,19.60
2018-08-06T06:32:54.916Z,19.80
2018-08-06T06:37:51.099Z,20.10
2018-08-06T06:40:19.375Z,20.20
2018-08-06T06:42:47.576Z,20.40
2018-08-06T06:45:15.768Z,20.50
2018-08-06T06:47:44.224Z,20.60
2018-08-06T06:50:12.400Z,20.80
2018-08-06T06:52:40.605Z,20.90
2018-08-06T06:55:10.515Z,21.00
2018-08-06T06:57:38.717Z,21.10
2018-08-06T07:00:07.862Z,21.20
2018-08-06T07:02:36.011Z,21.30
2018-08-06T07:05:04.627Z,21.40
2018-08-06T07:07:32.800Z,21.50
2018-08-06T07:10:00.991Z,21.60
2018-08-06T07:12:29.188Z,21.70
2018-08-06T07:19:53.303Z,21.90
2018-08-06T07:22:21.485Z,22.00
2018-08-06T07:24:49.672Z,22.10
2018-08-06T07:27:17.879Z,22.20
2018-08-06T07:29:46.059Z,22.20
2018-08-06T07:32:14.264Z,22.30
2018-08-06T07:34:42.446Z,22.30
2018-08-06T07:39:38.564Z,22.40
2018-08-06T07:42:06.792Z,22.40
2018-08-06T07:44:34.984Z,22.50
2018-08-06T07:47:03.226Z,22.50
2018-08-06T07:49:31.396Z,22.50
2018-08-06T07:51:59.582Z,22.60
2018-08-06T07:54:27.752Z,22.60
2018-08-06T07:56:55.948Z,22.60
2018-08-06T07:59:24.222Z,22.70
2018-08-06T08:01:52.482Z,22.70
2018-08-06T08:04:21.336Z,22.80
2018-08-06T08:06:49.808Z,22.90
2018-08-06T08:11:45.964Z,23.00
2018-08-06T08:14:14.149Z,23.00
2018-08-06T08:16:42.364Z,23.10
2018-08-06T08:19:10.609Z,23.20
2018-08-06T08:21:38.803Z,23.20
2018-08-06T08:24:06.979Z,23.30
2018-08-06T08:26:35.156Z,23.40
2018-08-06T08:29:03.359Z,23.50
2018-08-06T08:31:31.543Z,23.50
2018-08-06T08:33:59.764Z,23.60
2018-08-06T08:36:27.953Z,23.60
2018-08-06T08:38:56.161Z,23.70
2018-08-06T08:43:52.300Z,23.90
2018-08-06T08:46:20.509Z,24.00
2018-08-06T08:48:48.716Z,24.10
2018-08-06T08:51:16.915Z,24.10
2018-08-06T08:53:45.093Z,24.20
2018-08-06T08:56:13.332Z,24.30
2018-08-06T08:58:41.565Z,24.40
2018-08-06T09:01:09.733Z,24.50
2018-08-06T09:06:05.894Z,24.60
2018-08-06T09:08:34.189Z,24.70
2018-08-06T09:11:02.357Z,24.80
2018-08-06T09:13:30.537Z,24.90
2018-08-06T09:15:58.742Z,24.90
2018-08-06T09:18:26.919Z,25.00
2018-08-06T09:20:55.124Z,25.10
2018-08-06T09:25:51.255Z,25.30
2018-08-06T09:28:19.489Z,25.40
2018-08-06T09:30:47.674Z,25.50
2018-08-06T09:33:15.889Z,25.60
2018-08-06T09:35:44.085Z,25.70
2018-08-06T09:38:12.252Z,25.80
2018-08-06T09:40:40.585Z,25.90
2018-08-06T09:43:08.652Z,26.00
2018-08-06T09:48:05.031Z,26.20
2018-08-06T09:50:33.212Z,26.20
2018-08-06T09:53:01.424Z,26.30
2018-08-06T09:55:29.664Z,26.40
2018-08-06T09:57:57.848Z,26.50
2018-08-06T10:00:31.596Z,26.60
2018-08-06T10:03:01.065Z,26.70
2018-08-06T10:05:29.625Z,26.80
2018-08-06T10:07:57.807Z,26.80
2018-08-06T10:10:26.016Z,26.90
2018-08-06T10:12:54.200Z,27.00
2018-08-06T10:15:22.708Z,27.20
2018-08-06T10:17:52.320Z,27.20
2018-08-06T10:22:49.891Z,27.50
2018-08-06T10:27:46.671Z,27.70
2018-08-06T10:30:16.326Z,27.80
2018-08-06T10:32:44.943Z,27.90
2018-08-06T10:37:41.981Z,28.10
2018-08-06T10:40:23.007Z,28.20
2018-08-06T10:42:51.256Z,28.30
2018-08-06T10:47:50.887Z,28.50
2018-08-06T10:50:19.069Z,28.60
2018-08-06T10:52:47.270Z,28.70
2018-08-06T10:55:15.471Z,28.80
2018-08-06T10:57:44.556Z,28.80
2018-08-06T11:00:15.151Z,28.90
2018-08-06T11:02:43.406Z,29.00
2018-08-06T11:07:40.719Z,29.20
2018-08-06T11:10:11.203Z,29.30
2018-08-06T11:12:39.926Z,29.40
2018-08-06T11:15:12.155Z,29.50
2018-08-06T11:17:40.691Z,29.60
2018-08-06T11:20:10.531Z,29.70
2018-08-06T11:22:39.063Z,29.70
2018-08-06T11:25:08.031Z,29.90
2018-08-06T11:27:36.424Z,30.00
2018-08-06T11:30:07.630Z,30.00
2018-08-06T11:32:35.955Z,30.10
2018-08-06T11:35:04.732Z,30.20
2018-08-06T11:37:32.919Z,30.30
2018-08-06T11:40:01.273Z,30.30
2018-08-06T11:42:29.447Z,30.40
2018-08-06T11:44:57.625Z,30.50
2018-08-06T11:47:25.782Z,30.50
2018-08-06T11:49:53.996Z,30.60
2018-08-06T11:52:22.216Z,30.70
2018-08-06T11:54:50.404Z,30.80
2018-08-06T12:04:42.512Z,31.00
2018-08-06T12:07:10.689Z,31.10
2018-08-06T12:09:38.889Z,31.20
2018-08-06T12:12:07.081Z,31.20
2018-08-06T12:14:35.255Z,31.30
2018-08-06T12:17:03.460Z,31.40
2018-08-06T12:19:31.666Z,31.40
2018-08-06T12:21:59.836Z,31.50
2018-08-06T12:24:28.017Z,31.50
2018-08-06T12:26:56.304Z,31.60
2018-08-06T12:29:24.503Z,31.70
2018-08-06T12:31:52.675Z,31.70
2018-08-06T12:34:20.851Z,31.80
2018-08-06T12:36:49.353Z,31.80
2018-08-06T12:39:17.559Z,31.90
2018-08-06T12:41:45.744Z,32.00
2018-08-06T12:44:14.785Z,32.10
2018-08-06T12:46:43.258Z,32.20
2018-08-06T12:49:11.495Z,32.20
2018-08-06T12:51:39.994Z,32.30
2018-08-06T12:54:08.816Z,32.30
2018-08-06T12:56:37.027Z,32.40
2018-08-06T12:59:05.336Z,32.50
2018-08-06T13:01:33.512Z,32.50
2018-08-06T13:04:01.687Z,32.60
2018-08-06T13:06:29.887Z,32.70
2018-08-06T13:08:58.056Z,32.80
2018-08-06T13:13:54.189Z,32.90
2018-08-06T13:16:22.404Z,32.90
2018-08-06T13:18:50.568Z,33.00
2018-08-06T13:21:18.736Z,33.00
2018-08-06T13:23:46.927Z,33.10
2018-08-06T13:26:15.115Z,33.20
2018-08-06T13:28:43.296Z,33.20
2018-08-06T13:31:11.532Z,33.20
2018-08-06T13:33:39.662Z,33.30
2018-08-06T13:36:07.852Z,33.40
2018-08-06T13:38:36.051Z,33.40
2018-08-06T13:41:04.263Z,33.40
2018-08-06T13:43:32.456Z,33.50
2018-08-06T13:46:00.648Z,33.50
2018-08-06T13:48:28.840Z,33.60
2018-08-06T13:50:57.007Z,33.60
2018-08-06T13:55:53.178Z,33.70
2018-08-06T13:58:21.369Z,33.80
2018-08-06T14:00:49.580Z,33.80
2018-08-06T14:03:17.766Z,33.80
2018-08-06T14:08:13.877Z,34.00
2018-08-06T14:10:42.063Z,34.20
2018-08-06T14:13:10.241Z,34.30
2018-08-06T14:15:38.454Z,34.40
2018-08-06T14:18:07.005Z,34.50
2018-08-06T14:23:03.158Z,34.60
2018-08-06T14:27:59.276Z,34.80
2018-08-06T14:30:27.497Z,34.90
2018-08-06T14:32:55.703Z,35.00
2018-08-06T14:35:23.903Z,35.10
2018-08-06T14:37:52.112Z,35.20
2018-08-06T14:40:20.325Z,35.20
2018-08-06T14:42:48.514Z,35.30
2018-08-06T14:45:16.970Z,35.40
2018-08-06T14:47:45.199Z,35.50
2018-08-06T14:50:14.603Z,35.50
2018-08-06T14:52:42.835Z,35.60
2018-08-06T14:55:11.019Z,35.60
2018-08-06T14:57:40.351Z,35.60
2018-08-06T15:00:18.207Z,35.70
2018-08-06T15:02:46.938Z,35.70
2018-08-06T15:05:15.162Z,35.80
2018-08-06T15:07:43.334Z,35.80
2018-08-06T15:10:12.728Z,35.90
2018-08-06T15:12:41.070Z,35.90
2018-08-06T15:15:11.726Z,35.90
2018-08-06T15:17:39.895Z,35.90
2018-08-06T15:20:10.510Z,35.90
2018-08-06T15:22:38.899Z,36.00
2018-08-06T15:25:11.750Z,36.10
2018-08-06T15:30:08.507Z,36.20
2018-08-06T15:35:05.080Z,36.40
2018-08-06T15:37:33.323Z,36.40
2018-08-06T15:40:01.496Z,36.50
2018-08-06T15:42:29.688Z,36.50
2018-08-06T15:44:58.688Z,36.50
2018-08-06T15:47:26.884Z,36.40
2018-08-06T15:49:55.725Z,36.50
2018-08-06T15:52:23.918Z,36.50
2018-08-06T15:57:20.080Z,36.50
2018-08-06T15:59:48.267Z,36.50
2018-08-06T16:02:16.451Z,36.60
2018-08-06T16:04:44.669Z,36.60
2018-08-06T16:09:40.817Z,36.60
2018-08-06T16:12:09.009Z,36.70
2018-08-06T16:14:37.200Z,36.70
2018-08-06T16:17:05.416Z,36.80
2018-08-06T16:19:33.624Z,36.80
2018-08-06T16:22:01.922Z,36.80
2018-08-06T16:24:30.124Z,36.90
2018-08-06T16:26:58.374Z,36.90
2018-08-06T16:29:26.543Z,37.00
2018-08-06T16:31:54.743Z,37.00
2018-08-06T16:34:22.928Z,37.00
2018-08-06T16:36:51.119Z,37.00
2018-08-06T16:39:19.296Z,37.00
2018-08-06T16:41:47.463Z,37.00
2018-08-06T16:44:15.657Z,37.00
2018-08-06T16:49:11.835Z,37.00
2018-08-06T16:51:40.035Z,36.90
2018-08-06T16:54:08.211Z,36.90
2018-08-06T16:56:36.391Z,36.80
2018-08-06T16:59:04.567Z,36.80
2018-08-06T17:01:32.753Z,36.70
2018-08-06T17:06:28.958Z,36.50
2018-08-06T17:11:25.036Z,36.30
2018-08-06T17:13:53.205Z,36.20
2018-08-06T17:16:21.429Z,36.10
2018-08-06T17:18:49.637Z,36.10
2018-08-06T17:21:17.817Z,35.90
2018-08-06T17:23:46.010Z,35.80
2018-08-06T17:26:14.200Z,35.70
2018-08-06T17:28:42.463Z,35.60
2018-08-06T17:33:38.611Z,35.30
2018-08-06T17:36:06.822Z,35.20
2018-08-06T17:38:35.053Z,35.00
2018-08-06T17:43:31.248Z,34.80
2018-08-06T17:45:59.510Z,34.70
2018-08-06T17:53:23.623Z,34.30
2018-08-06T17:55:51.827Z,34.20
2018-08-06T17:58:20.014Z,34.20
2018-08-06T18:00:48.220Z,34.10
2018-08-06T18:03:16.517Z,34.00
2018-08-06T18:05:44.711Z,33.90
2018-08-06T18:08:12.892Z,33.80
2018-08-06T18:10:41.268Z,33.60
2018-08-06T18:13:09.468Z,33.50
2018-08-06T18:15:37.698Z,33.40
2018-08-06T18:18:06.097Z,33.30
2018-08-06T18:20:34.304Z,33.20
2018-08-06T18:27:58.411Z,32.90
2018-08-06T18:32:54.628Z,32.70
2018-08-06T18:35:22.853Z,32.60
2018-08-06T18:37:51.051Z,32.50
2018-08-06T18:40:20.433Z,32.40
2018-08-06T18:42:48.660Z,32.30
2018-08-06T18:45:18.182Z,32.20
2018-08-06T18:47:47.193Z,32.10
2018-08-06T18:52:45.180Z,31.90
2018-08-06T18:55:14.198Z,31.70
2018-08-06T18:57:42.758Z,31.60
2018-08-06T19:00:15.687Z,31.50
2018-08-06T19:02:43.921Z,31.40
2018-08-06T19:05:12.164Z,31.30
2018-08-06T19:07:40.688Z,31.20
2018-08-06T19:10:09.675Z,31.10
2018-08-06T19:12:43.359Z,31.00
2018-08-06T19:15:11.946Z,30.80
2018-08-06T19:17:45.508Z,30.70
2018-08-06T19:20:13.695Z,30.70
2018-08-06T19:22:41.918Z,30.60
2018-08-06T19:25:15.592Z,30.50
2018-08-06T19:30:12.301Z,30.30
2018-08-06T19:32:40.553Z,30.20
2018-08-06T19:35:09.284Z,30.10
2018-08-06T19:37:42.945Z,30.00
2018-08-06T19:40:11.918Z,29.90
2018-08-06T19:42:45.515Z,29.90
2018-08-06T19:45:14.521Z,29.80
2018-08-06T19:47:43.617Z,29.70
2018-08-06T19:50:17.409Z,29.60
2018-08-06T19:52:45.621Z,29.50
2018-08-06T19:55:20.065Z,29.40
2018-08-06T19:57:48.289Z,29.30
2018-08-06T20:00:16.512Z,29.20
2018-08-06T20:02:44.821Z,29.10
2018-08-06T20:05:13.043Z,29.00
2018-08-06T20:07:41.259Z,28.90
2018-08-06T20:10:11.244Z,28.80
2018-08-06T20:12:39.461Z,28.80
2018-08-06T20:17:37.259Z,28.60
2018-08-06T20:22:33.828Z,28.40
2018-08-06T20:25:02.073Z,28.30
2018-08-06T20:27:30.288Z,28.30
2018-08-06T20:29:58.472Z,28.20
2018-08-06T20:32:26.654Z,28.10
2018-08-06T20:34:54.833Z,28.00
2018-08-06T20:37:23.062Z,28.00
2018-08-06T20:39:51.288Z,27.90
2018-08-06T20:42:19.561Z,27.80
2018-08-06T20:44:47.691Z,27.70
2018-08-06T20:47:15.895Z,27.60
2018-08-06T20:49:44.100Z,27.60
2018-08-06T20:54:40.226Z,27.40
2018-08-06T20:57:08.399Z,27.40
2018-08-06T20:59:36.588Z,27.20
2018-08-06T21:04:32.715Z,27.10
2018-08-06T21:07:00.912Z,27.00
2018-08-06T21:11:57.159Z,26.90
2018-08-06T21:14:25.401Z,26.80
2018-08-06T21:16:53.589Z,26.80
2018-08-06T21:21:49.883Z,26.70
2018-08-06T21:24:18.095Z,26.60
2018-08-06T21:26:46.283Z,26.50
2018-08-06T21:31:42.401Z,26.40
2018-08-06T21:34:10.596Z,26.40
2018-08-06T21:36:38.836Z,26.30
2018-08-06T21:39:09.437Z,26.20
2018-08-06T21:41:37.581Z,26.20
2018-08-06T21:46:34.081Z,26.00
2018-08-06T21:49:02.263Z,25.90
2018-08-06T21:51:30.619Z,25.90
2018-08-06T21:53:58.947Z,25.80
2018-08-06T21:56:27.149Z,25.70
2018-08-06T21:58:55.651Z,25.70
2018-08-06T22:01:23.817Z,25.70
2018-08-06T22:03:52.070Z,25.60
2018-08-06T22:08:48.197Z,25.50
2018-08-06T22:11:16.376Z,25.40
2018-08-06T22:16:12.529Z,25.40
2018-08-06T22:21:08.658Z,25.20
2018-08-06T22:23:36.847Z,25.20
2018-08-06T22:28:34.013Z,25.10
2018-08-06T22:33:30.163Z,25.00
2018-08-06T22:35:58.339Z,25.00
2018-08-06T22:38:26.542Z,24.90
2018-08-06T22:40:54.740Z,24.80
2018-08-06T22:43:22.946Z,24.80
2018-08-06T22:45:51.094Z,24.70
2018-08-06T22:48:19.263Z,24.60
2018-08-06T22:50:47.460Z,24.60
2018-08-06T22:55:55.112Z,24.50
2018-08-06T22:58:23.296Z,24.40
2018-08-06T23:00:51.477Z,24.40
2018-08-06T23:03:19.668Z,24.40
2018-08-06T23:05:47.900Z,24.30
2018-08-06T23:08:16.072Z,24.30
2018-08-06T23:10:44.278Z,24.20
2018-08-06T23:13:12.454Z,24.20
2018-08-06T23:15:40.649Z,24.10
2018-08-06T23:18:08.840Z,24.10
2018-08-06T23:20:37.023Z,24.00
2018-08-06T23:23:05.233Z,24.00
2018-08-06T23:25:33.408Z,24.00
2018-08-06T23:28:01.602Z,23.90
2018-08-06T23:30:29.808Z,23.90
2018-08-06T23:35:25.951Z,23.90
2018-08-06T23:40:22.103Z,23.80
2018-08-06T23:42:50.312Z,23.70
2018-08-06T23:45:18.505Z,23.70
2018-08-06T23:47:46.692Z,23.60
2018-08-06T23:50:15.499Z,23.60
2018-08-06T23:55:14.089Z,23.50
2018-08-06T23:57:42.383Z,23.50
